Time;durP1;ratioP1;P1;durP2;ratioP2;P2;SDS_P1;SDS_P2;PMS_P1;PMS_P2;Temp;Humidity;BMP_temperature;BMP_pressure;BME280_temperature;BME280_humidity;BME280_pressure;Samples;Min_cycle;Max_cycle;Signal;HPM_P1;HPM_P2
2022/01/21 00:00:50;;;;;;;0.70;0.70;;;0.60;99.90;;;;;;5141159;27;20043;-79
2022/01/21 00:03:16;;;;;;;0.70;0.70;;;0.60;99.90;;;;;;5141094;27;20074;-78
2022/01/21 00:05:42;;;;;;;0.70;0.70;;;0.50;99.90;;;;;;5141191;27;20078;-77
2022/01/21 00:08:07;;;;;;;0.70;0.70;;;0.50;99.90;;;;;;5140949;27;20107;-78
2022/01/21 00:10:33;;;;;;;0.60;0.60;;;0.50;99.90;;;;;;5141156;27;20035;-79
2022/01/21 00:12:58;;;;;;;0.70;0.70;;;0.40;99.90;;;;;;5138709;27;20630;-78
2022/01/21 00:15:24;;;;;;;0.63;0.63;;;0.40;99.90;;;;;;5137978;27;20043;-79
2022/01/21 00:17:49;;;;;;;0.70;0.70;;;0.40;99.90;;;;;;5138070;27;20075;-80
2022/01/21 00:31:19;;;;;;;1.13;1.13;;;0.60;99.90;;;;;;5137241;27;20055;-78
2022/01/21 00:33:45;;;;;;;0.68;0.68;;;0.60;99.90;;;;;;5119428;27;20050;-79
2022/01/21 00:36:10;;;;;;;0.70;0.70;;;0.60;99.90;;;;;;5138064;27;20050;-79
2022/01/21 00:38:36;;;;;;;0.70;0.70;;;0.60;99.90;;;;;;5119400;27;20035;-78
2022/01/21 00:41:05;;;;;;;0.70;0.70;;;0.60;99.90;;;;;;5137359;27;20073;-77
2022/01/21 00:43:32;;;;;;;0.70;0.70;;;0.50;99.90;;;;;;5137338;27;20054;-78
2022/01/21 00:46:02;;;;;;;0.60;0.60;;;0.50;99.90;;;;;;5119191;27;20050;-78
2022/01/21 00:48:28;;;;;;;0.70;0.70;;;0.50;99.90;;;;;;5137136;27;20055;-78
2022/01/21 00:50:54;;;;;;;0.60;0.60;;;0.50;99.90;;;;;;5137155;27;20055;-79
2022/01/21 00:53:20;;;;;;;0.70;0.70;;;0.60;99.90;;;;;;5137226;27;20045;-78
2022/01/21 00:55:45;;;;;;;0.70;0.70;;;0.50;99.90;;;;;;5137024;27;20039;-80
2022/01/21 00:58:11;;;;;;;0.70;0.70;;;0.50;99.90;;;;;;5137149;27;20368;-78
2022/01/21 01:00:37;;;;;;;0.70;0.70;;;0.50;99.90;;;;;;5136221;27;20050;-79
2022/01/21 01:03:03;;;;;;;0.67;0.67;;;0.60;99.90;;;;;;5137356;27;20138;-79
2022/01/21 01:05:29;;;;;;;0.70;0.70;;;0.60;99.90;;;;;;5136810;27;20054;-78
2022/01/21 01:07:55;;;;;;;0.70;0.70;;;0.70;99.90;;;;;;5136886;27;20043;-78
2022/01/21 01:10:36;;;;;;;0.70;0.70;;;0.70;99.90;;;;;;5137034;27;20134;-78
2022/01/21 01:19:55;;;;;;;0.80;0.80;;;0.80;99.90;;;;;;5136804;27;20126;-80
2022/01/21 01:21:17;;;;;;;0.60;0.60;;;0.90;99.90;;;;;;5136682;27;20047;-79
2022/01/21 01:29:11;;;;;;;0.68;0.68;;;1.00;99.90;;;;;;5136675;27;20138;-78
2022/01/21 01:31:37;;;;;;;0.70;0.70;;;1.10;99.90;;;;;;5136415;27;20122;-78
2022/01/21 01:34:03;;;;;;;0.70;0.70;;;1.10;99.90;;;;;;5136317;27;20051;-78
2022/01/21 01:36:29;;;;;;;0.70;0.70;;;1.20;99.90;;;;;;5136354;27;20047;-78
2022/01/21 01:41:26;;;;;;;0.70;0.70;;;1.30;99.90;;;;;;5136081;27;20134;-78
2022/01/21 01:49:28;;;;;;;0.70;0.70;;;1.50;99.90;;;;;;5136134;27;20489;-79
2022/01/21 01:51:56;;;;;;;0.70;0.70;;;1.40;99.90;;;;;;5136032;27;20043;-79
2022/01/21 01:54:21;;;;;;;0.70;0.70;;;1.40;99.90;;;;;;5135459;27;20475;-77
2022/01/21 01:56:52;;;;;;;0.70;0.70;;;1.40;99.90;;;;;;5135659;27;20049;-79
2022/01/21 01:59:18;;;;;;;0.60;0.60;;;1.40;99.90;;;;;;5135984;27;20070;-77
2022/01/21 02:01:51;;;;;;;0.70;0.70;;;1.40;99.90;;;;;;5117517;27;20043;-79
2022/01/21 02:04:17;;;;;;;0.70;0.70;;;1.40;99.90;;;;;;5135569;27;20043;-80
2022/01/21 02:06:42;;;;;;;0.70;0.70;;;1.30;99.90;;;;;;5135545;27;20039;-78
2022/01/21 02:09:08;;;;;;;0.70;0.70;;;1.30;99.90;;;;;;5135534;27;20047;-78
2022/01/21 02:11:33;;;;;;;0.60;0.60;;;1.30;99.90;;;;;;5117035;27;20039;-79
2022/01/21 02:14:01;;;;;;;0.70;0.70;;;1.30;99.90;;;;;;5135830;27;20118;-80
2022/01/21 02:21:41;;;;;;;0.70;0.70;;;1.30;99.90;;;;;;5135447;27;20062;-78
2022/01/21 02:24:34;;;;;;;0.70;0.70;;;1.30;99.90;;;;;;5135243;27;20542;-80
2022/01/21 02:27:01;;;;;;;0.70;0.70;;;1.30;99.90;;;;;;5135252;27;20088;-80
2022/01/21 02:29:37;;;;;;;0.70;0.70;;;1.00;99.90;;;;;;5135133;27;20399;-79
2022/01/21 02:32:03;;;;;;;0.70;0.70;;;1.30;99.90;;;;;;5135071;27;20100;-81
2022/01/21 02:34:30;;;;;;;0.70;0.70;;;1.30;99.90;;;;;;5116831;27;20047;-79
2022/01/21 02:36:55;;;;;;;;;;;1.30;99.90;;;;;;5134466;27;20046;-80
2022/01/21 02:39:21;;;;;;;0.68;0.68;;;1.30;99.90;;;;;;5134919;27;20450;-78
2022/01/21 02:41:47;;;;;;;0.60;0.60;;;1.20;99.90;;;;;;5134920;27;20039;-79
2022/01/21 02:44:16;;;;;;;0.70;0.70;;;1.20;99.90;;;;;;5134907;27;20043;-80
2022/01/21 02:46:44;;;;;;;0.60;0.60;;;1.10;99.90;;;;;;5135077;27;20038;-78
2022/01/21 02:49:11;;;;;;;0.70;0.70;;;1.10;99.90;;;;;;5134930;27;20403;-79
2022/01/21 02:51:37;;;;;;;0.70;0.70;;;1.10;99.90;;;;;;5116844;27;20047;-80
2022/01/21 02:54:05;;;;;;;0.70;0.70;;;1.00;99.90;;;;;;5135175;27;20054;-81
2022/01/21 02:56:33;;;;;;;0.70;0.70;;;1.00;99.90;;;;;;5135023;27;20043;-80
2022/01/21 02:58:59;;;;;;;0.70;0.70;;;1.00;99.90;;;;;;5135010;27;20051;-79
2022/01/21 03:01:25;;;;;;;0.70;0.70;;;1.00;99.90;;;;;;5134985;28;20050;-78
2022/01/21 03:03:51;;;;;;;0.70;0.70;;;1.00;99.90;;;;;;5116724;28;20035;-80
2022/01/21 03:06:19;;;;;;;0.70;0.70;;;1.00;99.90;;;;;;5135003;28;20040;-79
2022/01/21 03:08:47;;;;;;;1.33;1.23;;;1.10;99.90;;;;;;5135158;28;20463;-78
2022/01/21 03:11:12;;;;;;;0.70;0.70;;;1.10;99.90;;;;;;5135037;28;20092;-80
2022/01/21 03:13:40;;;;;;;0.70;0.70;;;1.10;99.90;;;;;;5134650;28;20425;-79
2022/01/21 03:16:06;;;;;;;0.70;0.70;;;1.20;99.90;;;;;;5134826;28;20566;-80
2022/01/21 03:18:31;;;;;;;0.70;0.70;;;1.20;99.90;;;;;;5134771;28;20118;-79
2022/01/21 03:20:57;;;;;;;0.60;0.60;;;1.20;99.90;;;;;;5134704;28;20086;-78
2022/01/21 03:23:24;;;;;;;0.70;0.70;;;1.20;99.90;;;;;;5135146;28;20405;-79
2022/01/21 03:25:50;;;;;;;0.70;0.70;;;;;;;;;;5134746;28;20062;-80
2022/01/21 03:28:17;;;;;;;0.70;0.70;;;1.20;99.90;;;;;;5134235;28;20035;-79
2022/01/21 03:30:42;;;;;;;0.70;0.70;;;1.20;99.90;;;;;;5134904;28;20043;-80
2022/01/21 03:33:09;;;;;;;0.70;0.70;;;1.30;99.90;;;;;;5134708;28;20180;-79
2022/01/21 03:35:35;;;;;;;0.60;0.60;;;1.30;99.90;;;;;;5135396;28;20117;-79
2022/01/21 03:38:00;;;;;;;0.68;0.68;;;1.30;99.90;;;;;;5134528;28;20592;-80
2022/01/21 03:40:26;;;;;;;0.70;0.70;;;1.30;99.90;;;;;;5134505;28;20035;-79
2022/01/21 03:42:51;;;;;;;0.60;0.60;;;1.50;99.90;;;;;;5134803;28;20047;-79
2022/01/21 03:45:18;;;;;;;0.60;0.60;;;1.30;99.90;;;;;;5134641;28;20096;-79
2022/01/21 03:47:44;;;;;;;0.70;0.70;;;1.40;99.90;;;;;;5134676;27;20092;-78
2022/01/21 03:50:24;;;;;;;0.70;0.70;;;1.40;99.90;;;;;;5097433;28;20103;-79
2022/01/21 03:52:51;;;;;;;0.60;0.60;;;1.40;99.90;;;;;;5097927;28;20448;-78
2022/01/21 03:55:17;;;;;;;0.70;0.70;;;1.40;99.90;;;;;;5096291;28;20040;-77
2022/01/21 03:57:46;;;;;;;0.60;0.60;;;1.40;99.90;;;;;;5097043;28;20044;-78
2022/01/21 04:00:23;;;;;;;0.60;0.60;;;1.60;99.90;;;;;;5096967;28;20094;-78
2022/01/21 04:02:49;;;;;;;;;;;1.40;99.90;;;;;;5097430;28;20052;-79
2022/01/21 04:05:15;;;;;;;0.60;0.60;;;1.40;99.90;;;;;;5095662;28;19927;-80
2022/01/21 04:07:40;;;;;;;0.70;0.70;;;1.40;99.90;;;;;;5096059;28;20495;-80
2022/01/21 04:10:07;;;;;;;0.60;0.60;;;1.40;99.90;;;;;;5095825;28;20082;-80
2022/01/21 04:12:33;;;;;;;0.60;0.60;;;1.50;99.90;;;;;;5096884;28;20052;-79
2022/01/21 04:14:59;;;;;;;0.60;0.60;;;1.50;99.90;;;;;;5095148;28;20054;-79
2022/01/21 04:17:26;;;;;;;0.70;0.70;;;1.50;99.90;;;;;;5096658;28;20122;-77
2022/01/21 04:19:52;;;;;;;0.60;0.60;;;1.50;99.90;;;;;;5095675;28;20057;-78
2022/01/21 04:22:17;;;;;;;0.60;0.60;;;1.70;99.90;;;;;;5096557;28;20415;-78
2022/01/21 04:24:48;;;;;;;0.70;0.70;;;1.50;99.90;;;;;;5096753;28;20076;-78
2022/01/21 04:27:14;;;;;;;0.70;0.70;;;1.50;99.90;;;;;;5096628;28;20205;-79
2022/01/21 04:29:39;;;;;;;0.70;0.70;;;1.50;99.90;;;;;;5096372;28;20040;-78
2022/01/21 04:32:05;;;;;;;0.70;0.70;;;2.10;99.90;;;;;;5096429;28;20067;-80
2022/01/21 04:34:32;;;;;;;0.70;0.70;;;1.50;99.90;;;;;;5096526;28;20509;-79
2022/01/21 04:36:59;;;;;;;0.70;0.70;;;1.40;99.90;;;;;;5096231;28;20044;-78
2022/01/21 04:39:30;;;;;;;0.70;0.70;;;1.40;99.90;;;;;;5096258;28;20137;-78
2022/01/21 04:47:24;;;;;;;0.70;0.70;;;1.40;99.90;;;;;;5096106;28;20040;-80
2022/01/21 04:49:50;;;;;;;0.70;0.70;;;1.30;99.90;;;;;;5131150;27;20134;-80
2022/01/21 04:52:16;;;;;;;0.70;0.70;;;1.50;99.90;;;;;;5136940;27;20088;-80
2022/01/21 04:54:42;;;;;;;0.70;0.70;;;1.80;99.90;;;;;;5136936;27;20047;-79
2022/01/21 04:57:08;;;;;;;0.70;0.70;;;1.30;99.90;;;;;;5136830;27;20494;-80
2022/01/21 04:59:35;;;;;;;0.60;0.60;;;1.30;99.90;;;;;;5136132;27;20043;-80
2022/01/21 05:02:00;;;;;;;0.60;0.60;;;1.20;99.90;;;;;;5136843;27;20091;-78
2022/01/21 05:04:26;;;;;;;0.70;0.70;;;1.20;99.90;;;;;;5136741;27;20471;-79
2022/01/21 05:06:55;;;;;;;0.70;0.70;;;1.30;99.90;;;;;;5136805;27;20130;-80
2022/01/21 05:09:33;;;;;;;0.70;0.70;;;;;;;;;;5136511;27;20043;-79
2022/01/21 05:12:08;;;;;;;0.65;0.65;;;1.30;99.90;;;;;;5136925;27;20047;-78
2022/01/21 05:15:25;;;;;;;0.70;0.70;;;1.50;99.90;;;;;;5136826;27;20039;-79
2022/01/21 05:17:19;;;;;;;0.70;0.70;;;1.30;99.90;;;;;;5125143;27;20054;-79
2022/01/21 05:19:45;;;;;;;0.60;0.60;;;1.30;99.90;;;;;;5136549;27;20047;-80
2022/01/21 05:22:11;;;;;;;0.60;0.60;;;1.30;99.90;;;;;;5136799;27;20142;-79
2022/01/21 05:24:36;;;;;;;0.70;0.70;;;1.30;99.90;;;;;;5136857;27;20385;-81
2022/01/21 05:27:02;;;;;;;0.70;0.70;;;1.30;99.90;;;;;;5136872;27;20163;-80
2022/01/21 05:29:30;;;;;;;0.60;0.60;;;1.20;99.90;;;;;;5136368;27;20046;-80
2022/01/21 05:31:56;;;;;;;0.70;0.70;;;1.20;99.90;;;;;;5136482;27;20074;-80
2022/01/21 05:34:22;;;;;;;0.70;0.70;;;1.10;99.90;;;;;;5136386;27;20047;-78
2022/01/21 05:36:48;;;;;;;0.70;0.70;;;1.30;99.90;;;;;;5135813;27;20502;-80
2022/01/21 05:39:16;;;;;;;0.70;0.70;;;1.10;99.90;;;;;;5117983;27;20482;-80
2022/01/21 05:41:47;;;;;;;0.70;0.70;;;1.00;99.90;;;;;;5136236;27;20043;-80
2022/01/21 05:44:20;;;;;;;0.70;0.70;;;1.00;99.90;;;;;;5136486;27;20047;-80
2022/01/21 05:46:55;;;;;;;1.70;1.60;;;0.90;99.90;;;;;;5136370;27;20043;-80
2022/01/21 05:49:26;;;;;;;0.70;0.70;;;0.90;99.90;;;;;;5136696;27;20054;-79
2022/01/21 05:52:00;;;;;;;0.70;0.70;;;0.90;99.90;;;;;;5136461;27;20047;-78
2022/01/21 05:54:26;;;;;;;0.70;0.70;;;0.90;99.90;;;;;;5117780;27;20035;-81
2022/01/21 05:56:52;;;;;;;0.70;0.70;;;0.90;99.90;;;;;;5135854;27;20039;-80
2022/01/21 05:59:18;;;;;;;0.70;0.70;;;0.80;99.90;;;;;;5135910;27;20087;-79
2022/01/21 06:01:43;;;;;;;0.70;0.70;;;0.80;99.90;;;;;;5135733;27;20047;-79
2022/01/21 06:04:09;;;;;;;0.70;0.70;;;0.80;99.90;;;;;;5136608;27;20039;-79
2022/01/21 06:06:35;;;;;;;0.60;0.60;;;0.80;99.90;;;;;;5136178;27;20047;-78
2022/01/21 06:09:02;;;;;;;0.70;0.70;;;0.80;99.90;;;;;;5135648;27;20093;-79
2022/01/21 06:11:28;;;;;;;0.60;0.60;;;0.80;99.90;;;;;;5134461;27;20482;-80
2022/01/21 06:13:53;;;;;;;0.70;0.70;;;0.80;99.90;;;;;;5135443;27;20054;-79
2022/01/21 06:16:19;;;;;;;0.70;0.70;;;0.90;99.90;;;;;;5135588;27;20054;-78
2022/01/21 06:18:46;;;;;;;0.70;0.70;;;0.90;99.90;;;;;;5135666;27;20035;-81
2022/01/21 06:21:12;;;;;;;0.70;0.70;;;0.80;99.90;;;;;;5135519;27;20039;-77
2022/01/21 06:23:38;;;;;;;0.70;0.70;;;0.90;99.90;;;;;;5135450;27;20543;-78
2022/01/21 06:26:04;;;;;;;0.63;0.63;;;0.80;99.90;;;;;;5135491;27;20051;-79
2022/01/21 06:28:30;;;;;;;0.70;0.70;;;0.80;99.90;;;;;;5135098;27;20044;-78
2022/01/21 06:30:55;;;;;;;0.70;0.70;;;0.90;99.90;;;;;;5135344;27;20051;-80
2022/01/21 06:33:22;;;;;;;0.60;0.60;;;0.80;99.90;;;;;;5135279;27;20035;-80
2022/01/21 06:35:51;;;;;;;0.70;0.70;;;0.90;99.90;;;;;;5135437;27;20043;-78
2022/01/21 06:38:19;;;;;;;0.63;0.63;;;1.00;99.90;;;;;;5135173;27;20036;-79
2022/01/21 06:40:45;;;;;;;0.70;0.70;;;0.90;99.90;;;;;;5134617;27;20047;-79
2022/01/21 06:43:10;;;;;;;0.70;0.70;;;0.90;99.90;;;;;;5134803;27;20088;-79
2022/01/21 06:45:36;;;;;;;0.70;0.70;;;0.90;99.90;;;;;;5134798;27;20092;-79
2022/01/21 06:48:03;;;;;;;0.70;0.70;;;0.80;99.90;;;;;;5134757;27;20096;-80
2022/01/21 06:50:30;;;;;;;0.90;0.90;;;0.80;99.90;;;;;;5135271;27;20058;-80
2022/01/21 06:52:55;;;;;;;0.70;0.70;;;0.90;99.90;;;;;;5116854;28;20082;-78
2022/01/21 06:55:21;;;;;;;0.70;0.70;;;0.80;99.90;;;;;;5134756;27;20074;-79
2022/01/21 06:57:47;;;;;;;0.70;0.70;;;0.90;99.90;;;;;;5134861;27;20035;-79
2022/01/21 07:00:18;;;;;;;0.70;0.70;;;0.90;99.90;;;;;;5134797;27;20051;-80
2022/01/21 07:02:44;;;;;;;0.88;0.88;;;0.90;99.90;;;;;;5117505;28;20487;-80
2022/01/21 07:05:10;;;;;;;0.70;0.70;;;1.00;99.90;;;;;;5134455;28;20054;-81
2022/01/21 07:07:36;;;;;;;0.70;0.70;;;0.90;99.90;;;;;;5116954;28;20035;-80
2022/01/21 07:10:05;;;;;;;0.70;0.70;;;0.90;99.90;;;;;;5135010;28;20050;-80
2022/01/21 07:12:31;;;;;;;0.60;0.60;;;1.00;99.90;;;;;;5134774;28;20044;-81
2022/01/21 07:14:56;;;;;;;0.70;0.70;;;1.00;99.90;;;;;;5134575;28;20061;-80
2022/01/21 07:17:22;;;;;;;0.60;0.60;;;1.00;99.90;;;;;;5116605;28;20382;-80
2022/01/21 07:19:48;;;;;;;0.70;0.70;;;1.50;99.90;;;;;;5135051;28;20043;-83
2022/01/21 07:22:13;;;;;;;0.70;0.70;;;1.00;99.90;;;;;;5117368;27;20054;-79
2022/01/21 07:24:39;;;;;;;0.60;0.60;;;0.90;99.90;;;;;;5138863;27;20125;-78
2022/01/21 07:27:04;;;;;;;0.70;0.70;;;0.90;99.90;;;;;;5139071;27;20051;-78
2022/01/21 07:29:30;;;;;;;0.70;0.70;;;0.90;99.90;;;;;;5138838;27;20506;-80
2022/01/21 07:31:56;;;;;;;0.70;0.70;;;0.90;99.90;;;;;;5120893;27;20073;-80
2022/01/21 07:34:23;;;;;;;0.70;0.70;;;1.00;99.90;;;;;;5138935;27;20078;-80
2022/01/21 07:36:49;;;;;;;0.60;0.60;;;1.00;99.90;;;;;;5138194;27;20043;-78
2022/01/21 07:39:14;;;;;;;0.60;0.60;;;0.90;99.90;;;;;;5138632;27;20039;-79
2022/01/21 07:41:40;;;;;;;0.65;0.65;;;0.90;99.90;;;;;;5138710;27;20058;-80
2022/01/21 07:44:05;;;;;;;0.70;0.70;;;0.90;99.90;;;;;;5138429;27;20491;-78
2022/01/21 07:46:31;;;;;;;0.70;0.70;;;0.90;99.90;;;;;;5138779;27;20049;-80
2022/01/21 07:48:59;;;;;;;0.60;0.60;;;0.90;99.90;;;;;;5138524;27;20091;-81
2022/01/21 07:51:25;;;;;;;1.10;1.00;;;0.90;99.90;;;;;;5138641;27;20043;-77
2022/01/21 07:53:52;;;;;;;0.70;0.70;;;0.90;99.90;;;;;;5138152;27;20548;-80
2022/01/21 07:56:17;;;;;;;0.70;0.70;;;1.10;99.90;;;;;;5138392;27;20097;-81
2022/01/21 07:58:43;;;;;;;23.27;7.43;;;1.00;99.90;;;;;;5138102;27;20070;-80
2022/01/21 08:01:09;;;;;;;0.60;0.60;;;1.00;99.90;;;;;;5138173;27;20039;-80
2022/01/21 08:03:34;;;;;;;0.70;0.70;;;1.00;99.90;;;;;;5138240;27;20079;-80
2022/01/21 08:06:00;;;;;;;0.70;0.70;;;1.10;99.90;;;;;;5138176;27;20061;-80
2022/01/21 08:08:26;;;;;;;0.70;0.70;;;1.00;99.90;;;;;;5138137;27;20122;-80
2022/01/21 08:10:53;;;;;;;0.70;0.70;;;1.00;99.90;;;;;;5137703;27;20047;-80
2022/01/21 08:13:19;;;;;;;0.70;0.70;;;1.00;99.90;;;;;;5137743;27;20276;-81
2022/01/21 08:15:44;;;;;;;0.70;0.70;;;1.00;99.90;;;;;;5137826;27;20038;-80
2022/01/21 08:18:10;;;;;;;0.70;0.70;;;1.00;99.90;;;;;;5137569;27;20467;-80
2022/01/21 08:20:36;;;;;;;0.70;0.70;;;1.00;99.90;;;;;;5137897;27;20050;-78
2022/01/21 08:23:01;;;;;;;0.70;0.70;;;1.00;99.90;;;;;;5137557;27;20047;-81
2022/01/21 08:25:27;;;;;;;0.63;0.63;;;1.10;99.90;;;;;;5137580;27;20091;-81
2022/01/21 08:27:53;;;;;;;0.60;0.60;;;1.10;99.90;;;;;;5119377;27;20471;-80
2022/01/21 08:30:19;;;;;;;0.70;0.70;;;1.30;99.90;;;;;;5137382;27;20405;-82
2022/01/21 08:32:44;;;;;;;0.70;0.70;;;1.10;99.90;;;;;;5102011;27;20121;-82
2022/01/21 08:35:10;;;;;;;0.70;0.70;;;1.10;99.90;;;;;;5136758;27;20078;-81
2022/01/21 08:37:37;;;;;;;0.70;0.70;;;1.20;99.90;;;;;;5137199;27;20079;-84
2022/01/21 08:40:04;;;;;;;0.60;0.60;;;1.20;99.90;;;;;;5118905;27;20047;-82
2022/01/21 08:42:29;;;;;;;;;;;1.20;99.90;;;;;;5102332;27;20086;-79
2022/01/21 08:44:55;;;;;;;0.70;0.70;;;1.20;99.90;;;;;;5136813;27;19970;-80
2022/01/21 08:47:22;;;;;;;0.70;0.70;;;1.30;99.90;;;;;;5119032;27;20042;-79
2022/01/21 08:49:49;;;;;;;0.70;0.70;;;1.30;99.90;;;;;;5137446;27;20059;-80
2022/01/21 08:52:19;;;;;;;0.80;0.80;;;1.40;99.90;;;;;;5137311;27;20398;-82
2022/01/21 08:54:47;;;;;;;0.70;0.70;;;1.50;99.90;;;;;;5119134;27;20039;-81
2022/01/21 08:57:14;;;;;;;8.07;7.30;;;1.50;99.90;;;;;;5136829;27;20395;-80
2022/01/21 08:59:40;;;;;;;;;;;1.50;99.90;;;;;;5137327;27;20043;-82
2022/01/21 09:02:06;;;;;;;0.60;0.60;;;0.90;99.90;;;;;;5119284;27;19968;-81
2022/01/21 09:04:32;;;;;;;0.70;0.70;;;1.70;99.90;;;;;;5119039;27;20093;-79
2022/01/21 09:06:58;;;;;;;0.60;0.60;;;1.70;99.90;;;;;;5136762;27;20044;-83
2022/01/21 09:09:25;;;;;;;0.60;0.60;;;1.80;99.90;;;;;;5118451;27;20047;-83
2022/01/21 09:11:52;;;;;;;0.70;0.70;;;1.90;99.90;;;;;;5136619;27;20125;-82
2022/01/21 09:14:17;;;;;;;0.60;0.60;;;2.00;99.90;;;;;;5136556;27;20058;-78
2022/01/21 09:16:43;;;;;;;0.60;0.60;;;2.10;99.90;;;;;;5136316;27;20387;-82
2022/01/21 09:19:09;;;;;;;0.60;0.60;;;2.10;99.90;;;;;;5135854;27;20092;-82
2022/01/21 09:21:37;;;;;;;0.60;0.60;;;2.20;99.90;;;;;;5136474;27;20039;-82
2022/01/21 09:24:04;;;;;;;0.60;0.60;;;2.40;99.90;;;;;;5136447;27;20498;-82
2022/01/21 09:26:30;;;;;;;0.60;0.60;;;2.40;99.90;;;;;;5136496;27;20058;-83
2022/01/21 09:28:59;;;;;;;0.60;0.60;;;2.40;99.90;;;;;;5118195;27;20043;-83
2022/01/21 09:31:25;;;;;;;0.60;0.60;;;2.50;99.90;;;;;;5136885;27;20069;-83
2022/01/21 09:33:51;;;;;;;0.60;0.60;;;2.40;99.90;;;;;;5119062;27;20039;-83
2022/01/21 09:36:19;;;;;;;0.60;0.60;;;2.60;99.90;;;;;;5136343;27;20376;-82
2022/01/21 09:38:46;;;;;;;2.15;2.05;;;2.60;99.90;;;;;;5136336;27;20039;-82
2022/01/21 09:41:11;;;;;;;;;;;2.70;99.90;;;;;;5136554;27;20383;-82
2022/01/21 09:43:39;;;;;;;0.60;0.60;;;2.70;99.90;;;;;;5136121;27;19920;-82
2022/01/21 09:46:07;;;;;;;0.60;0.60;;;2.70;99.90;;;;;;5136072;27;20125;-82
2022/01/21 09:48:48;;;;;;;0.60;0.60;;;2.70;99.90;;;;;;5101223;27;20093;-83
2022/01/21 09:51:14;;;;;;;0.60;0.60;;;2.80;99.90;;;;;;5117835;27;20043;-82
2022/01/21 09:53:41;;;;;;;0.60;0.60;;;2.80;99.90;;;;;;5135906;27;20039;-83
2022/01/21 09:56:06;;;;;;;0.60;0.60;;;2.80;99.90;;;;;;5083559;27;20079;-82
2022/01/21 09:58:33;;;;;;;0.60;0.60;;;2.90;99.90;;;;;;5117574;27;20147;-81
2022/01/21 10:01:05;;;;;;;0.60;0.60;;;2.90;99.90;;;;;;5100601;27;20062;-82
2022/01/21 10:03:31;;;;;;;0.60;0.60;;;3.00;99.90;;;;;;5117769;27;20047;-82
2022/01/21 10:05:57;;;;;;;0.60;0.60;;;3.00;99.90;;;;;;5135517;27;20039;-82
2022/01/21 10:08:24;;;;;;;0.60;0.60;;;3.20;99.90;;;;;;5135192;27;20494;-82
2022/01/21 10:10:51;;;;;;;0.60;0.60;;;3.10;99.90;;;;;;5135463;27;20082;-82
2022/01/21 10:13:19;;;;;;;0.60;0.60;;;3.20;99.90;;;;;;5117210;27;20043;-82
2022/01/21 10:15:46;;;;;;;0.60;0.60;;;3.20;99.90;;;;;;5117231;27;20074;-82
2022/01/21 10:18:14;;;;;;;0.60;0.60;;;3.30;99.90;;;;;;5134790;27;20423;-82
2022/01/21 10:21:07;;;;;;;0.60;0.60;;;3.30;99.90;;;;;;5117174;27;20083;-82
2022/01/21 10:23:38;;;;;;;0.80;0.80;;;3.40;99.90;;;;;;5135168;27;20175;-80
2022/01/21 10:26:16;;;;;;;0.60;0.60;;;3.40;99.90;;;;;;5135148;27;20054;-80
2022/01/21 10:28:42;;;;;;;;;;;3.50;99.90;;;;;;5134753;27;20038;-82
2022/01/21 10:31:19;;;;;;;0.60;0.60;;;3.50;99.90;;;;;;5135051;27;19930;-83
2022/01/21 10:33:56;;;;;;;0.60;0.60;;;3.50;99.90;;;;;;5135018;27;20127;-82
2022/01/21 10:36:27;;;;;;;;;;;3.60;99.90;;;;;;5135175;27;20491;-82
2022/01/21 10:39:19;;;;;;;0.60;0.60;;;3.60;99.90;;;;;;5134912;27;19920;-81
2022/01/21 10:41:49;;;;;;;0.60;0.60;;;3.80;99.90;;;;;;5134927;27;20047;-82
2022/01/21 10:44:17;;;;;;;1.40;1.30;;;3.80;99.90;;;;;;5135011;27;20035;-80
2022/01/21 10:47:00;;;;;;;3.28;0.70;;;3.90;99.90;;;;;;5135298;27;20074;-81
2022/01/21 10:49:25;;;;;;;0.60;0.60;;;4.00;99.90;;;;;;5134785;27;20134;-82
2022/01/21 10:51:52;;;;;;;0.60;0.60;;;4.00;99.90;;;;;;5134864;27;20473;-82
2022/01/21 10:54:20;;;;;;;0.52;0.52;;;4.10;99.90;;;;;;5134759;27;20039;-79
2022/01/21 10:57:10;;;;;;;1.17;1.17;;;4.00;99.90;;;;;;5134830;27;20047;-81
2022/01/21 10:59:52;;;;;;;0.60;0.60;;;4.00;99.90;;;;;;5116845;27;20079;-83
2022/01/21 11:02:54;;;;;;;0.60;0.60;;;4.00;99.90;;;;;;5134890;27;20043;-83
2022/01/21 11:05:27;;;;;;;0.60;0.60;;;4.90;99.90;;;;;;5103010;28;20411;-84
2022/01/21 11:08:02;;;;;;;0.60;0.60;;;4.00;99.90;;;;;;5116466;28;20043;-84
2022/01/21 11:10:34;;;;;;;0.60;0.60;;;4.00;99.90;;;;;;5134591;28;20499;-80
2022/01/21 11:13:01;;;;;;;0.60;0.60;;;4.00;99.90;;;;;;5134311;28;20251;-84
2022/01/21 11:15:39;;;;;;;;;;;4.00;99.90;;;;;;5116590;28;20047;-86
2022/01/21 11:18:07;;;;;;;0.60;0.60;;;4.00;99.90;;;;;;5099458;28;19926;-82
2022/01/21 11:20:39;;;;;;;0.60;0.60;;;4.60;99.90;;;;;;5134506;28;20110;-82
2022/01/21 11:23:05;;;;;;;0.60;0.60;;;4.10;99.90;;;;;;5134157;28;20482;-82
2022/01/21 11:26:03;;;;;;;0.60;0.60;;;4.20;99.90;;;;;;5133972;28;20047;-82
2022/01/21 11:28:49;;;;;;;0.60;0.60;;;4.20;99.90;;;;;;5116930;28;20311;-79
2022/01/21 11:31:24;;;;;;;0.60;0.60;;;4.30;99.90;;;;;;5117716;28;20046;-80
2022/01/21 11:33:50;;;;;;;0.60;0.60;;;4.30;99.90;;;;;;5134421;28;20084;-84
2022/01/21 11:36:16;;;;;;;0.60;0.60;;;4.40;99.90;;;;;;5115922;28;20433;-81
2022/01/21 11:38:44;;;;;;;0.60;0.60;;;4.40;99.90;;;;;;5134672;28;20062;-82
2022/01/21 11:41:12;;;;;;;0.60;0.60;;;4.50;99.90;;;;;;5134238;28;20051;-82
2022/01/21 11:43:38;;;;;;;0.60;0.60;;;4.50;99.90;;;;;;5134540;28;20043;-82
2022/01/21 11:48:56;;;;;;;0.60;0.60;;;4.50;99.90;;;;;;5134771;27;20418;-83
2022/01/21 11:51:26;;;;;;;0.60;0.60;;;4.60;99.90;;;;;;5134230;28;20051;-82
2022/01/21 11:53:54;;;;;;;0.60;0.60;;;4.60;99.90;;;;;;5115900;28;20043;-85
2022/01/21 11:56:46;;;;;;;0.60;0.60;;;6.30;99.90;;;;;;5099427;28;20051;-83
2022/01/21 11:59:24;;;;;;;0.60;0.60;;;4.70;99.90;;;;;;5115985;28;20511;-82
2022/01/21 12:01:52;;;;;;;0.60;0.60;;;4.80;99.90;;;;;;5134373;28;20043;-83
2022/01/21 12:04:29;;;;;;;0.60;0.60;;;4.90;99.90;;;;;;5134455;28;20051;-84
2022/01/21 12:06:56;;;;;;;;;;;4.90;99.90;;;;;;5134824;28;20047;-82
2022/01/21 12:09:54;;;;;;;0.60;0.60;;;5.00;99.90;;;;;;5116832;27;20336;-84
2022/01/21 12:12:20;;;;;;;0.60;0.60;;;5.00;99.90;;;;;;5120178;27;20050;-84
2022/01/21 12:14:51;;;;;;;0.60;0.60;;;5.00;99.90;;;;;;5102790;27;20043;-81
2022/01/21 12:17:41;;;;;;;0.60;0.60;;;5.00;99.90;;;;;;5120126;27;20395;-85
2022/01/21 12:20:08;;;;;;;0.50;0.50;;;5.10;99.90;;;;;;5119802;27;20118;-83
2022/01/21 12:22:33;;;;;;;0.60;0.60;;;5.10;99.90;;;;;;5102399;27;20047;-82
2022/01/21 12:25:08;;;;;;;0.60;0.60;;;5.10;99.90;;;;;;5138416;27;20050;-81
2022/01/21 12:27:35;;;;;;;0.85;0.85;;;5.10;99.90;;;;;;5137671;27;20487;-82
2022/01/21 12:30:33;;;;;;;0.80;0.80;;;5.20;99.90;;;;;;5137927;27;20479;-83
2022/01/21 12:33:09;;;;;;;0.60;0.60;;;5.20;99.90;;;;;;5092180;27;20196;-82
2022/01/21 12:35:35;;;;;;;0.57;0.57;;;5.10;99.90;;;;;;5137696;27;20043;-80
2022/01/21 12:41:15;;;;;;;0.57;0.57;;;5.00;99.90;;;;;;5107751;27;20444;-83
2022/01/21 12:43:42;;;;;;;1.73;1.42;;;5.30;99.90;;;;;;5119458;27;20470;-84
2022/01/21 12:46:11;;;;;;;0.70;0.68;;;5.30;99.90;;;;;;5137588;27;20047;-83
2022/01/21 12:48:38;;;;;;;0.50;0.50;;;5.30;99.90;;;;;;5137216;27;20054;-82
2022/01/21 12:51:13;;;;;;;;;;;5.30;99.90;;;;;;5137912;27;20047;-82
2022/01/21 12:55:55;;;;;;;1.77;1.67;;;5.40;99.90;;;;;;5137362;27;19964;-82
2022/01/21 12:56:27;;;;;;;0.60;0.60;;;5.40;99.90;;;;;;5119787;27;20055;-84
2022/01/21 12:58:53;;;;;;;0.52;0.52;;;5.40;99.90;;;;;;5137153;27;20495;-82
2022/01/21 13:01:19;;;;;;;3.90;3.53;;;5.40;99.90;;;;;;5136973;27;20167;-82
2022/01/21 13:03:59;;;;;;;0.77;0.77;;;5.60;99.90;;;;;;5119199;27;20043;-82
2022/01/21 13:06:56;;;;;;;0.60;0.60;;;6.10;99.90;;;;;;5120109;27;20065;-82
2022/01/21 13:09:42;;;;;;;4.22;3.67;;;5.60;99.90;;;;;;5090996;27;20399;-83
2022/01/21 13:12:12;;;;;;;0.60;0.60;;;5.60;99.90;;;;;;5118710;27;20036;-76
2022/01/21 13:14:43;;;;;;;2.80;2.60;;;5.60;99.90;;;;;;5137040;27;20551;-83
2022/01/21 13:17:14;;;;;;;0.50;0.50;;;5.70;99.90;;;;;;5137100;27;20039;-81
2022/01/21 13:19:53;;;;;;;0.52;0.52;;;5.70;99.90;;;;;;5136568;27;20047;-83
2022/01/21 13:22:21;;;;;;;0.50;0.50;;;5.70;99.90;;;;;;5137076;27;20043;-79
2022/01/21 13:25:05;;;;;;;0.60;0.60;;;5.70;99.90;;;;;;5136661;27;20551;-79
2022/01/21 13:27:35;;;;;;;0.52;0.52;;;5.70;99.90;;;;;;5136412;27;20040;-77
2022/01/21 13:30:07;;;;;;;0.60;0.60;;;5.80;99.90;;;;;;5136762;27;20137;-77
2022/01/21 13:32:33;;;;;;;0.50;0.50;;;5.80;99.90;;;;;;5136234;27;20073;-78
2022/01/21 13:35:13;;;;;;;0.60;0.60;;;5.80;99.90;;;;;;5136158;27;20126;-76
2022/01/21 13:37:40;;;;;;;0.50;0.50;;;5.80;99.90;;;;;;5135790;27;20475;-79
2022/01/21 13:40:08;;;;;;;0.50;0.50;;;5.80;99.90;;;;;;5135960;27;20566;-79
2022/01/21 13:42:35;;;;;;;0.50;0.50;;;5.90;99.90;;;;;;5136076;27;20051;-78
2022/01/21 13:45:08;;;;;;;0.50;0.50;;;5.90;99.90;;;;;;5136002;27;20147;-79
2022/01/21 13:47:44;;;;;;;0.60;0.60;;;5.90;99.90;;;;;;5136049;27;20344;-79
2022/01/21 13:50:22;;;;;;;0.50;0.50;;;5.90;99.90;;;;;;5136313;27;20051;-78
2022/01/21 13:52:54;;;;;;;0.50;0.50;;;6.00;99.90;;;;;;5135283;27;20050;-78
2022/01/21 13:55:43;;;;;;;0.50;0.50;;;6.00;99.90;;;;;;5135703;27;20054;-78